createdAt,value
2022-12-11T00:03:03.430Z,12.75
2022-12-11T00:07:05.251Z,9.48
2022-12-11T00:11:12.644Z,11.90
2022-12-11T00:15:14.428Z,11.80
2022-12-11T00:19:16.624Z,10.60
2022-12-11T00:23:18.484Z,11.68
2022-12-11T00:27:20.200Z,11.07
2022-12-11T00:31:23.911Z,9.35
2022-12-11T00:35:25.769Z,9.55
2022-12-11T00:39:27.505Z,11.38
2022-12-11T00:43:29.222Z,9.57
2022-12-11T00:47:30.944Z,11.02
2022-12-11T00:51:32.692Z,11.60
2022-12-11T00:55:42.196Z,11.20
2022-12-11T00:59:43.929Z,10.05
2022-12-11T01:03:46.222Z,11.00
2022-12-11T01:07:49.224Z,8.23
2022-12-11T01:11:51.084Z,9.50
2022-12-11T01:15:52.815Z,9.25
2022-12-11T01:19:55.141Z,10.18
2022-12-11T01:23:57.906Z,9.68
2022-12-11T01:27:59.822Z,9.23
2022-12-11T01:32:01.564Z,8.35
2022-12-11T01:36:11.503Z,9.75
2022-12-11T01:40:19.425Z,7.68
2022-12-11T01:44:21.224Z,7.75
2022-12-11T01:48:27.377Z,8.35
2022-12-11T01:52:29.326Z,7.50
2022-12-11T01:56:34.286Z,8.00
2022-12-11T02:00:36.119Z,8.13
2022-12-11T02:04:40.380Z,7.57
2022-12-11T02:08:42.169Z,9.85
2022-12-11T02:12:58.248Z,7.57
2022-12-11T02:17:16.784Z,6.40
2022-12-11T02:21:26.134Z,6.00
2022-12-11T02:25:42.882Z,7.32
2022-12-11T02:29:55.047Z,7.93
2022-12-11T02:34:04.474Z,8.15
2022-12-11T02:38:13.030Z,7.90
2022-12-11T02:42:16.488Z,6.88
2022-12-11T02:46:20.798Z,7.78
2022-12-11T02:50:26.335Z,8.10
2022-12-11T02:54:33.441Z,7.68
2022-12-11T02:58:42.135Z,7.97
2022-12-11T03:02:45.545Z,8.65
2022-12-11T03:06:51.368Z,10.20
2022-12-11T03:10:53.157Z,8.30
2022-12-11T03:14:56.536Z,9.25
2022-12-11T03:19:07.456Z,8.15
2022-12-11T03:23:36.721Z,7.88
2022-12-11T03:27:58.545Z,9.05
2022-12-11T03:32:03.287Z,8.52
2022-12-11T03:36:14.651Z,7.32
2022-12-11T03:40:19.864Z,6.30
2022-12-11T03:44:22.760Z,7.72
2022-12-11T03:48:28.208Z,6.72
2022-12-11T03:52:32.536Z,6.57
2022-12-11T03:56:37.887Z,8.05
2022-12-11T04:00:39.913Z,7.05
2022-12-11T04:04:42.496Z,6.25
2022-12-11T04:08:44.310Z,6.75
2022-12-11T04:12:46.035Z,6.15
2022-12-11T04:16:48.288Z,9.50
2022-12-11T04:21:11.400Z,5.88
2022-12-11T04:25:13.381Z,6.20
2022-12-11T04:29:15.609Z,5.85
2022-12-11T04:33:17.361Z,5.90
2022-12-11T04:37:19.086Z,8.43
2022-12-11T04:41:20.807Z,5.05
2022-12-11T04:45:22.652Z,6.03
2022-12-11T04:49:24.437Z,6.68
2022-12-11T04:53:26.629Z,7.50
2022-12-11T04:57:28.368Z,7.32
2022-12-11T05:01:30.185Z,6.85
2022-12-11T05:05:31.954Z,8.02
2022-12-11T05:09:33.843Z,6.63
2022-12-11T05:13:36.114Z,6.07
2022-12-11T05:17:37.911Z,5.82
2022-12-11T05:21:39.656Z,7.70
2022-12-11T05:25:41.400Z,8.60
2022-12-11T05:29:43.281Z,7.82
2022-12-11T05:33:46.260Z,7.38
2022-12-11T05:37:48.039Z,7.57
2022-12-11T05:41:49.816Z,7.15
2022-12-11T05:45:51.596Z,7.47
2022-12-11T05:49:53.339Z,6.97
2022-12-11T05:53:56.622Z,7.60
2022-12-11T05:57:58.353Z,7.85
2022-12-11T06:02:00.228Z,7.85
2022-12-11T06:06:03.494Z,7.20
2022-12-11T06:10:05.664Z,7.07
2022-12-11T06:14:07.398Z,8.00
2022-12-11T06:18:09.308Z,8.00
2022-12-11T06:22:11.048Z,7.63
2022-12-11T06:26:14.074Z,7.82
2022-12-11T06:30:16.597Z,7.75
2022-12-11T06:34:18.321Z,7.38
2022-12-11T06:38:20.066Z,7.60
2022-12-11T06:42:21.800Z,7.40
2022-12-11T06:46:23.637Z,6.15
2022-12-11T06:50:25.583Z,7.55
2022-12-11T06:54:28.260Z,7.40
2022-12-11T06:58:30.012Z,8.32
2022-12-11T07:02:32.286Z,6.43
2022-12-11T07:06:34.077Z,7.28
2022-12-11T07:10:35.831Z,7.13
2022-12-11T07:14:37.648Z,6.32
2022-12-11T07:18:57.660Z,6.68
2022-12-11T07:22:59.373Z,9.77
2022-12-11T07:27:01.131Z,9.82
2022-12-11T07:31:18.877Z,8.40
2022-12-11T07:35:20.740Z,7.55
2022-12-11T07:39:22.594Z,9.10
2022-12-11T07:43:24.368Z,5.55
2022-12-11T07:47:26.073Z,7.28
2022-12-11T07:51:30.954Z,7.53
2022-12-11T07:55:32.708Z,8.77
2022-12-11T07:59:34.468Z,6.57
2022-12-11T08:03:36.202Z,9.55
2022-12-11T08:07:38.012Z,7.95
2022-12-11T08:11:39.737Z,7.60
2022-12-11T08:15:41.748Z,6.90
2022-12-11T08:19:43.496Z,8.02
2022-12-11T08:23:45.549Z,9.13
2022-12-11T08:27:47.289Z,8.45
2022-12-11T08:31:49.073Z,9.23
2022-12-11T08:35:50.933Z,7.93
2022-12-11T08:39:52.636Z,7.05
2022-12-11T08:43:55.581Z,7.28
2022-12-11T08:47:58.923Z,8.13
2022-12-11T08:52:00.711Z,7.53
2022-12-11T08:56:14.620Z,7.22
2022-12-11T09:00:17.354Z,11.38
2022-12-11T09:04:19.071Z,8.35
2022-12-11T09:08:20.947Z,7.82
2022-12-11T09:12:23.143Z,8.05
2022-12-11T09:16:26.893Z,8.75
2022-12-11T09:20:29.729Z,8.32
2022-12-11T09:24:31.523Z,7.88
2022-12-11T09:28:33.461Z,8.13
2022-12-11T09:32:35.222Z,8.45
2022-12-11T09:36:38.745Z,7.65
2022-12-11T09:40:42.955Z,8.50
2022-12-11T09:45:15.414Z,9.13
2022-12-11T09:49:40.938Z,9.43
2022-12-11T09:53:42.704Z,8.27
2022-12-11T09:57:47.184Z,7.82
2022-12-11T10:02:11.466Z,8.52
2022-12-11T10:06:41.948Z,8.15
2022-12-11T10:11:03.961Z,7.97
2022-12-11T10:15:15.023Z,7.78
2022-12-11T10:19:28.103Z,8.00
2022-12-11T10:23:41.949Z,8.52
2022-12-11T10:27:45.131Z,9.18
2022-12-11T10:31:53.540Z,7.07
2022-12-11T10:35:57.467Z,7.95
2022-12-11T10:39:59.296Z,7.43
2022-12-11T10:44:01.932Z,7.88
2022-12-11T10:48:06.776Z,8.25
2022-12-11T10:52:20.014Z,7.53
2022-12-11T10:56:27.836Z,9.63
2022-12-11T11:00:41.098Z,7.85
2022-12-11T11:04:44.821Z,7.65
2022-12-11T11:08:52.245Z,8.05
2022-12-11T11:13:02.430Z,8.93
2022-12-11T11:17:04.183Z,8.20
2022-12-11T11:21:06.446Z,8.48
2022-12-11T11:25:18.232Z,7.90
2022-12-11T11:29:32.787Z,7.60
2022-12-11T11:33:36.257Z,7.97
2022-12-11T11:37:40.474Z,7.28
2022-12-11T11:41:57.550Z,8.48
2022-12-11T11:46:27.892Z,7.80
2022-12-11T11:50:35.733Z,6.82
2022-12-11T11:54:53.028Z,8.18
2022-12-11T12:03:01.411Z,7.03
2022-12-11T12:07:38.776Z,7.30
2022-12-11T12:11:40.531Z,6.47
2022-12-11T12:16:00.264Z,7.10
2022-12-11T12:20:15.129Z,7.20
2022-12-11T12:24:22.884Z,7.05
2022-12-11T12:28:51.801Z,6.13
2022-12-11T12:33:24.310Z,6.88
2022-12-11T12:37:50.237Z,6.55
2022-12-11T12:42:11.475Z,5.43
2022-12-11T12:46:43.017Z,6.50
2022-12-11T12:50:49.242Z,5.10
2022-12-11T12:55:12.982Z,6.23
2022-12-11T12:59:26.531Z,7.05
2022-12-11T13:03:35.610Z,8.82
2022-12-11T13:07:37.820Z,6.57
2022-12-11T13:11:39.630Z,7.68
2022-12-11T13:15:45.004Z,4.88
2022-12-11T13:19:48.486Z,6.07
2022-12-11T13:23:50.267Z,5.95
2022-12-11T13:27:52.211Z,7.22
2022-12-11T13:32:21.210Z,7.70
2022-12-11T13:36:27.961Z,7.28
2022-12-11T13:40:37.968Z,7.28
2022-12-11T13:44:41.704Z,7.20
2022-12-11T13:48:57.217Z,7.45
2022-12-11T13:53:01.977Z,7.57
2022-12-11T13:57:06.459Z,7.25
2022-12-11T14:01:23.767Z,7.05
2022-12-11T14:05:25.613Z,7.20
2022-12-11T14:09:28.493Z,7.32
2022-12-11T14:13:39.709Z,5.07
2022-12-11T14:17:48.472Z,5.90
2022-12-11T14:22:02.014Z,7.15
2022-12-11T14:26:29.330Z,6.65
2022-12-11T14:30:35.000Z,7.82
2022-12-11T14:34:45.517Z,6.38
2022-12-11T14:39:01.873Z,6.72
2022-12-11T14:43:10.392Z,7.77
2022-12-11T14:47:18.836Z,6.35
2022-12-11T14:51:21.081Z,7.18
2022-12-11T14:55:30.883Z,5.50
2022-12-11T14:59:41.338Z,6.30
2022-12-11T15:03:43.293Z,5.88
2022-12-11T15:08:10.558Z,5.45
2022-12-11T15:12:19.726Z,5.43
2022-12-11T15:16:23.320Z,5.65
2022-12-11T15:20:30.264Z,5.40
2022-12-11T15:24:39.116Z,5.60
2022-12-11T15:28:40.915Z,6.82
2022-12-11T15:32:42.830Z,7.05
2022-12-11T15:36:44.723Z,7.15
2022-12-11T15:40:46.463Z,7.32
2022-12-11T15:44:48.349Z,7.70
2022-12-11T15:48:50.659Z,7.97
2022-12-11T15:52:53.843Z,6.75
2022-12-11T15:56:55.685Z,6.00
2022-12-11T16:00:57.897Z,5.97
2022-12-11T16:04:59.706Z,6.05
2022-12-11T16:09:04.072Z,6.95
2022-12-11T16:13:05.861Z,5.68
2022-12-11T16:17:08.982Z,5.13
2022-12-11T16:21:10.744Z,5.22
2022-12-11T16:25:12.739Z,6.22
2022-12-11T16:29:14.664Z,6.40
2022-12-11T16:33:16.551Z,4.47
2022-12-11T16:37:18.347Z,4.15
2022-12-11T16:41:20.190Z,5.07
2022-12-11T16:45:25.268Z,5.57
2022-12-11T16:49:27.038Z,6.22
2022-12-11T16:53:28.806Z,5.32
2022-12-11T16:57:30.552Z,6.18
2022-12-11T17:01:33.074Z,6.05
2022-12-11T17:05:34.850Z,5.53
2022-12-11T17:09:36.797Z,5.72
2022-12-11T17:13:39.223Z,5.30
2022-12-11T17:17:43.191Z,6.07
2022-12-11T17:21:51.596Z,6.25
2022-12-11T17:25:53.823Z,6.20
2022-12-11T17:29:56.358Z,6.88
2022-12-11T17:34:00.637Z,6.70
2022-12-11T17:38:02.585Z,7.13
2022-12-11T17:42:04.483Z,7.28
2022-12-11T17:46:07.239Z,6.85
2022-12-11T17:50:09.734Z,7.25
2022-12-11T17:54:11.614Z,5.50
2022-12-11T17:58:18.235Z,6.22
2022-12-11T18:06:23.182Z,5.95
2022-12-11T18:10:25.180Z,5.72
2022-12-11T18:14:26.981Z,6.85
2022-12-11T18:18:28.798Z,5.50
2022-12-11T18:22:30.609Z,5.82
2022-12-11T18:26:32.413Z,4.72
2022-12-11T18:30:34.225Z,3.85
2022-12-11T18:34:36.052Z,3.78
2022-12-11T18:38:38.247Z,4.90
2022-12-11T18:42:40.096Z,5.07
2022-12-11T18:46:41.936Z,5.20
2022-12-11T18:50:48.253Z,6.25
2022-12-11T18:54:52.256Z,6.20
2022-12-11T18:58:54.011Z,5.53
2022-12-11T19:02:55.771Z,5.25
2022-12-11T19:07:00.773Z,6.10
2022-12-11T19:11:02.606Z,6.65
2022-12-11T19:15:05.704Z,5.85
2022-12-11T19:19:11.204Z,5.18
2022-12-11T19:23:13.106Z,5.43
2022-12-11T19:27:14.856Z,7.70
2022-12-11T19:31:18.873Z,5.93
2022-12-11T19:35:20.726Z,6.22
2022-12-11T19:39:22.557Z,6.10
2022-12-11T19:43:24.483Z,6.63
2022-12-11T19:47:26.237Z,6.32
2022-12-11T19:51:33.944Z,6.63
2022-12-11T19:55:35.820Z,6.18
2022-12-11T19:59:37.533Z,6.80
2022-12-11T20:03:39.271Z,7.03
2022-12-11T20:07:41.051Z,7.82
2022-12-11T20:11:44.508Z,7.68
2022-12-11T20:15:46.293Z,7.35
2022-12-11T20:19:48.114Z,5.88
2022-12-11T20:23:50.263Z,7.20
2022-12-11T20:27:52.473Z,5.22
2022-12-11T20:31:54.348Z,7.38
2022-12-11T20:35:56.192Z,6.53
2022-12-11T20:39:58.113Z,7.05
2022-12-11T20:43:59.891Z,7.10
2022-12-11T20:48:01.652Z,7.28
2022-12-11T20:52:03.446Z,6.43
2022-12-11T20:56:17.333Z,7.63
2022-12-11T21:00:19.314Z,7.53
2022-12-11T21:04:21.149Z,6.97
2022-12-11T21:08:22.933Z,7.15
2022-12-11T21:12:31.307Z,5.30
2022-12-11T21:16:36.607Z,4.78
2022-12-11T21:20:39.248Z,7.13
2022-12-11T21:24:41.708Z,6.57
2022-12-11T21:28:43.667Z,5.78
2022-12-11T21:32:45.896Z,5.10
2022-12-11T21:36:47.746Z,5.95
2022-12-11T21:40:50.633Z,6.72
2022-12-11T21:49:14.273Z,5.68
2022-12-11T21:53:16.087Z,6.57
2022-12-11T21:57:22.711Z,5.35
2022-12-11T22:01:30.741Z,7.65
2022-12-11T22:05:32.897Z,7.13
2022-12-11T22:09:34.621Z,5.57
2022-12-11T22:13:36.706Z,6.03
2022-12-11T22:17:38.454Z,6.32
2022-12-11T22:21:40.956Z,7.10
2022-12-11T22:25:42.769Z,5.57
2022-12-11T22:29:44.571Z,6.70
2022-12-11T22:33:47.564Z,5.53
2022-12-11T22:37:49.289Z,6.70
2022-12-11T22:41:51.412Z,7.15
2022-12-11T22:45:53.341Z,5.57
2022-12-11T22:49:55.270Z,6.03
2022-12-11T22:53:57.885Z,5.80
2022-12-11T22:57:59.759Z,5.63
2022-12-11T23:02:01.628Z,7.93
2022-12-11T23:06:08.896Z,7.20
2022-12-11T23:10:10.972Z,6.13
2022-12-11T23:14:17.101Z,6.43
2022-12-11T23:18:18.955Z,4.97
2022-12-11T23:22:20.777Z,5.15
2022-12-11T23:26:23.500Z,4.72
2022-12-11T23:30:25.384Z,5.70
2022-12-11T23:34:27.176Z,4.90
2022-12-11T23:38:29.093Z,4.32
2022-12-11T23:42:30.823Z,5.05
2022-12-11T23:46:33.074Z,4.45
2022-12-11T23:50:34.957Z,4.13
2022-12-11T23:54:38.010Z,5.50
2022-12-11T23:58:40.070Z,5.57
